createdAt,value
2023-05-03T00:08:34.824Z,13.63
2023-05-03T00:23:36.598Z,11.91
2023-05-03T00:38:38.886Z,12.58
2023-05-03T00:53:41.035Z,13.93
2023-05-03T01:09:02.333Z,13.33
2023-05-03T01:24:08.573Z,12.77
2023-05-03T01:39:49.342Z,13.86
2023-05-03T01:54:51.057Z,12.01
2023-05-03T02:09:52.796Z,11.83
2023-05-03T02:24:54.530Z,12.14
2023-05-03T02:39:56.298Z,12.57
2023-05-03T02:54:58.069Z,11.76
2023-05-03T03:09:59.843Z,12.93
2023-05-03T03:25:01.767Z,11.76
2023-05-03T03:40:04.104Z,13.67
2023-05-03T03:55:06.485Z,10.72
2023-05-03T04:10:08.891Z,10.84
2023-05-03T04:25:14.324Z,12.83
2023-05-03T04:40:17.351Z,9.17
2023-05-03T04:55:19.484Z,11.78
2023-05-03T05:10:21.139Z,11.65
2023-05-03T05:25:23.447Z,11.04
2023-05-03T05:40:25.202Z,11.60
2023-05-03T05:55:26.902Z,10.78
2023-05-03T06:10:28.575Z,11.39
2023-05-03T06:25:30.395Z,11.09
2023-05-03T06:40:32.282Z,11.17
2023-05-03T06:55:34.151Z,11.95
2023-05-03T07:10:36.704Z,11.00
2023-05-03T07:25:39.491Z,11.40
2023-05-03T07:40:41.788Z,12.29
2023-05-03T07:55:43.385Z,12.67
2023-05-03T08:10:45.126Z,11.40
2023-05-03T08:25:46.901Z,12.96
2023-05-03T08:40:51.681Z,13.80
2023-05-03T08:55:53.839Z,13.32
2023-05-03T09:10:55.663Z,14.84
2023-05-03T09:25:58.429Z,15.06
2023-05-03T09:41:01.679Z,14.88
2023-05-03T09:56:06.267Z,16.20
2023-05-03T10:11:09.470Z,15.61
2023-05-03T10:26:13.615Z,16.75
2023-05-03T10:41:25.116Z,15.55
2023-05-03T10:56:26.897Z,15.22
2023-05-03T11:11:29.002Z,16.01
2023-05-03T11:26:36.146Z,16.84
2023-05-03T11:41:38.076Z,15.22
2023-05-03T11:56:39.764Z,15.92
2023-05-03T12:11:43.810Z,17.61
2023-05-03T12:26:48.729Z,17.42
2023-05-03T12:56:55.769Z,15.34
2023-05-03T13:11:58.246Z,15.01
2023-05-03T13:27:00.299Z,14.73
2023-05-03T13:42:02.420Z,14.18
2023-05-03T13:57:04.200Z,13.95
2023-05-03T14:12:07.277Z,13.21
2023-05-03T14:27:09.272Z,14.00
2023-05-03T14:42:11.581Z,9.38
2023-05-03T14:57:13.062Z,13.60
2023-05-03T15:12:14.742Z,12.57
2023-05-03T15:27:16.373Z,12.36
2023-05-03T15:42:18.030Z,12.73
2023-05-03T15:57:19.772Z,12.97
2023-05-03T16:12:21.934Z,12.19
2023-05-03T16:27:23.552Z,13.64
2023-05-03T16:57:40.957Z,12.21
2023-05-03T17:12:42.658Z,13.70
2023-05-03T17:27:44.498Z,13.27
2023-05-03T17:42:47.083Z,12.30
2023-05-03T17:57:49.584Z,13.05
2023-05-03T18:12:51.402Z,13.46
2023-05-03T18:27:53.214Z,11.72
2023-05-03T18:42:54.884Z,12.86
2023-05-03T18:57:56.533Z,13.50
2023-05-03T19:12:58.665Z,11.28
2023-05-03T19:28:00.466Z,12.21
2023-05-03T19:43:02.404Z,12.12
2023-05-03T19:58:04.135Z,10.75
2023-05-03T20:13:06.380Z,12.57
2023-05-03T20:28:08.215Z,13.36
2023-05-03T20:43:11.025Z,13.02
2023-05-03T20:58:13.024Z,11.99
2023-05-03T21:13:14.995Z,11.75
2023-05-03T21:28:17.337Z,11.79
2023-05-03T21:43:19.899Z,12.43
2023-05-03T21:58:21.743Z,10.96
2023-05-03T22:13:23.436Z,10.80
2023-05-03T22:28:25.306Z,11.57
2023-05-03T22:43:26.947Z,11.33
2023-05-03T22:58:29.284Z,10.92
2023-05-03T23:13:31.341Z,10.98
2023-05-03T23:28:33.219Z,11.05
2023-05-03T23:43:35.458Z,10.95
2023-05-03T23:58:37.212Z,9.90
